Time;durP1;ratioP1;P1;durP2;ratioP2;P2;SDS_P1;SDS_P2;PMS_P1;PMS_P2;Temp;Humidity;BMP_temperature;BMP_pressure;BME280_temperature;BME280_humidity;BME280_pressure;Samples;Min_cycle;Max_cycle;Signal;HPM_P1;HPM_P2
2022/09/19 00:01:55;;;;;;;1.15;0.50;;;;;;;24.52;35.19;102005.69;5070906;28;20074;-49
2022/09/19 00:04:25;;;;;;;1.63;0.50;;;;;;;24.48;34.97;102000.31;5074461;28;20038;-47
2022/09/19 00:06:54;;;;;;;1.27;0.60;;;;;;;24.55;34.96;102008.41;5077238;28;20036;-49
2022/09/19 00:09:28;;;;;;;2.67;0.73;;;;;;;24.50;35.08;101999.50;5067792;28;20028;-48
2022/09/19 00:11:57;;;;;;;2.95;0.55;;;;;;;24.51;35.08;102010.88;5070511;28;20402;-50
2022/09/19 00:14:27;;;;;;;2.50;0.55;;;;;;;24.51;34.85;102001.28;5070376;28;20116;-48
2022/09/19 00:17:02;;;;;;;2.67;0.75;;;;;;;24.46;34.82;102004.63;5070282;28;20119;-48
2022/09/19 00:19:31;;;;;;;3.05;0.50;;;;;;;24.47;35.28;102011.66;5070557;28;20028;-49
2022/09/19 00:22:01;;;;;;;3.38;0.85;;;;;;;24.41;35.09;102010.63;5048501;28;20063;-48
2022/09/19 00:24:49;;;;;;;1.42;0.52;;;;;;;24.49;35.14;102017.84;5072922;28;20060;-49
2022/09/19 00:27:21;;;;;;;2.80;0.55;;;;;;;24.45;35.00;102016.84;5070658;28;20032;-48
2022/09/19 00:29:50;;;;;;;1.33;0.50;;;;;;;24.32;34.78;101992.03;5071128;28;20076;-49
2022/09/19 00:32:19;;;;;;;1.98;0.70;;;;;;;24.39;35.07;102009.69;5069962;28;20356;-50
2022/09/19 00:34:49;;;;;;;1.23;0.55;;;;;;;24.35;35.02;102018.31;5070050;28;20021;-47
2022/09/19 00:37:20;;;;;;;1.42;0.57;;;;;;;24.40;34.85;102018.47;5073805;28;20071;-47
2022/09/19 00:39:48;;;;;;;1.98;0.65;;;;;;;24.34;34.99;102010.41;5070933;28;20069;-48
2022/09/19 00:42:20;;;;;;;3.67;0.60;;;;;;;24.28;34.75;102008.53;5075643;28;20526;-48
2022/09/19 00:45:08;;;;;;;2.05;0.60;;;;;;;24.26;35.35;102018.94;5076158;28;20398;-48
2022/09/19 00:47:40;;;;;;;3.10;0.82;;;;;;;24.30;35.02;102019.03;5061897;28;20228;-47
2022/09/19 00:50:13;;;;;;;2.28;0.70;;;;;;;24.31;34.73;102021.72;5065739;28;20036;-48
2022/09/19 00:52:47;;;;;;;0.77;0.43;;;;;;;24.22;35.03;102019.72;5054544;28;20043;-49
2022/09/19 00:55:16;;;;;;;2.20;0.70;;;;;;;24.22;35.42;102013.56;5072644;28;20119;-49
2022/09/19 00:57:53;;;;;;;2.58;0.73;;;;;;;24.18;34.88;102017.84;5071624;28;20037;-49
2022/09/19 01:00:22;;;;;;;2.03;1.00;;;;;;;24.12;35.34;102015.94;5053320;28;20032;-49
2022/09/19 01:02:51;;;;;;;1.35;0.43;;;;;;;24.15;35.23;102015.13;5066808;28;20042;-51
2022/09/19 01:05:28;;;;;;;2.80;0.75;;;;;;;24.11;34.95;102022.03;5051866;28;20043;-50
2022/09/19 01:08:28;;;;;;;1.92;0.50;;;;;;;24.12;35.52;102015.03;5075760;28;20060;-50
2022/09/19 01:11:16;;;;;;;1.83;0.50;;;;;;;24.14;35.41;102017.72;5061456;28;20040;-49
2022/09/19 01:13:52;;;;;;;1.40;0.52;;;;;;;24.16;34.99;102014.28;5070521;28;20051;-49
2022/09/19 01:16:34;;;;;;;1.67;0.32;;;;;;;24.10;34.89;102015.00;5070152;28;20129;-50
2022/09/19 01:19:21;;;;;;;2.15;0.50;;;;;;;24.12;35.57;102018.56;5050553;28;20032;-51
2022/09/19 01:22:15;;;;;;;2.10;0.77;;;;;;;24.16;35.41;102021.28;5055749;28;20581;-48
2022/09/19 01:24:55;;;;;;;1.60;0.45;;;;;;;24.15;35.02;102024.75;5051587;28;20452;-48
2022/09/19 01:27:44;;;;;;;1.17;0.65;;;;;;;24.20;35.03;102026.66;5073454;28;20035;-49
2022/09/19 01:30:14;;;;;;;2.38;0.57;;;;;;;24.16;35.04;102019.53;5061987;28;20380;-53
2022/09/19 01:32:51;;;;;;;1.83;0.80;;;;;;;24.08;35.38;102014.06;5073822;28;20036;-47
2022/09/19 01:35:28;;;;;;;3.17;0.70;;;;;;;24.10;35.20;102009.78;5076608;28;20024;-51
2022/09/19 01:38:10;;;;;;;2.30;0.82;;;;;;;24.05;35.19;102013.97;5047714;28;20031;-51
2022/09/19 01:40:39;;;;;;;0.90;0.40;;;;;;;24.06;35.36;102010.50;5052248;28;20024;-48
2022/09/19 01:43:14;;;;;;;2.35;1.00;;;;;;;24.09;35.17;102015.84;5075474;28;20113;-53
2022/09/19 01:45:42;;;;;;;1.75;0.60;;;;;;;24.09;35.15;102009.69;5069142;28;20031;-50
2022/09/19 01:48:23;;;;;;;1.38;0.55;;;;;;;24.16;34.97;102013.41;5073081;28;20036;-48
2022/09/19 01:51:11;;;;;;;2.10;0.47;;;;;;;24.08;34.83;102014.06;5046843;28;20032;-49
2022/09/19 01:54:11;;;;;;;4.97;0.68;;;;;;;24.05;35.18;102013.09;5069186;28;20028;-46
2022/09/19 01:57:09;;;;;;;2.67;0.50;;;;;;;24.04;35.46;102012.19;5072702;28;20936;-47
2022/09/19 02:00:06;;;;;;;1.42;0.50;;;;;;;24.01;35.17;102006.00;5064487;28;20048;-49
2022/09/19 02:02:43;;;;;;;1.60;0.80;;;;;;;24.03;35.21;102005.19;5067770;28;20466;-47
2022/09/19 02:05:35;;;;;;;1.52;0.50;;;;;;;24.02;34.99;102005.16;5071707;28;20020;-51
2022/09/19 02:08:09;;;;;;;2.85;0.80;;;;;;;23.97;35.29;102013.75;5055921;28;20491;-48
2022/09/19 02:11:00;;;;;;;2.72;0.55;;;;;;;23.87;35.32;102011.69;5068820;28;20035;-47
2022/09/19 02:13:30;;;;;;;2.53;0.50;;;;;;;23.93;35.06;102013.59;5069695;28;20029;-49
2022/09/19 02:16:04;;;;;;;2.35;0.50;;;;;;;23.92;35.58;102019.66;5063366;28;20036;-47
2022/09/19 02:18:39;;;;;;;2.10;0.65;;;;;;;23.92;35.26;102014.44;5051262;28;20726;-50
2022/09/19 02:21:10;;;;;;;;;;;;;;;23.97;35.34;102018.13;5052478;28;20036;-47
2022/09/19 02:23:47;;;;;;;1.35;0.47;;;;;;;23.99;35.19;102026.91;5053502;28;19916;-48
2022/09/19 02:26:19;;;;;;;1.25;0.50;;;;;;;23.93;35.42;102022.31;5071390;28;20533;-49
2022/09/19 02:28:54;;;;;;;0.88;0.30;;;;;;;23.92;35.25;102028.41;5049533;28;20048;-49
2022/09/19 02:31:22;;;;;;;;;;;;;;;23.93;35.55;102027.56;5052777;28;20083;-48
2022/09/19 02:33:50;;;;;;;2.15;0.50;;;;;;;23.94;35.48;102028.47;5072000;28;19917;-46
2022/09/19 02:36:31;;;;;;;3.55;0.60;;;;;;;23.77;35.20;102004.38;5068986;28;20051;-48
2022/09/19 02:39:08;;;;;;;1.33;0.55;;;;;;;23.97;35.48;102033.84;5068432;28;20889;-47
2022/09/19 02:41:42;;;;;;;0.95;0.40;;;;;;;23.89;35.39;102024.81;5069075;28;20024;-46
2022/09/19 02:44:19;;;;;;;0.90;0.40;;;;;;;23.92;35.02;102027.53;5071829;28;20024;-46
2022/09/19 02:47:02;;;;;;;2.42;0.50;;;;;;;23.89;35.32;102016.94;5077152;28;20032;-47
2022/09/19 02:49:54;;;;;;;2.40;0.65;;;;;;;23.87;35.28;102013.41;5054384;28;20383;-46
2022/09/19 02:52:29;;;;;;;2.22;0.85;;;;;;;23.77;35.26;102004.38;5071878;28;20106;-47
2022/09/19 02:55:12;;;;;;;0.63;0.30;;;;;;;23.79;35.37;102019.31;5072205;28;20302;-46
2022/09/19 02:57:44;;;;;;;0.90;0.30;;;;;;;23.74;35.59;102020.88;5061203;28;20445;-46
2022/09/19 03:00:14;;;;;;;2.00;0.45;;;;;;;23.79;35.06;102021.94;5068508;28;20074;-47
2022/09/19 03:02:47;;;;;;;2.03;0.50;;;;;;;23.78;35.16;102020.16;5071465;28;20112;-47
2022/09/19 03:05:18;;;;;;;1.77;0.55;;;;;;;23.80;35.25;102020.19;5054106;28;20499;-47
2022/09/19 03:07:52;;;;;;;1.42;0.70;;;;;;;23.79;35.21;102019.31;5054175;28;20025;-47
2022/09/19 03:10:22;;;;;;;1.40;0.60;;;;;;;23.79;35.30;102021.94;5058717;28;20039;-59
2022/09/19 03:12:54;;;;;;;1.42;0.47;;;;;;;23.78;34.95;102028.00;5053924;28;20028;-48
2022/09/19 03:15:36;;;;;;;0.98;0.32;;;;;;;23.75;35.01;102012.19;5076026;28;20038;-48
2022/09/19 03:18:13;;;;;;;1.02;0.50;;;;;;;23.76;35.33;102013.97;5057015;28;20031;-51
2022/09/19 03:20:46;;;;;;;1.50;0.43;;;;;;;23.76;34.94;102015.69;5073253;28;20027;-51
2022/09/19 03:23:16;;;;;;;1.75;0.52;;;;;;;23.78;34.94;102014.00;5055103;28;20062;-48
2022/09/19 03:25:44;;;;;;;2.30;0.50;;;;;;;23.73;34.95;102003.38;5054963;28;20151;-50
2022/09/19 03:28:13;;;;;;;1.05;0.30;;;;;;;23.74;35.19;101999.94;5072319;28;20059;-47
2022/09/19 03:30:41;;;;;;;2.42;0.65;;;;;;;23.72;34.97;102003.34;5065814;28;20036;-49
2022/09/19 03:33:11;;;;;;;1.75;0.50;;;;;;;23.61;35.15;101990.78;5066553;28;20031;-50
2022/09/19 03:35:40;;;;;;;1.40;0.52;;;;;;;23.68;34.71;102007.59;5071490;28;20043;-52
2022/09/19 03:38:08;;;;;;;0.63;0.57;;;;;;;23.64;35.20;102006.63;5069947;28;20032;-50
2022/09/19 03:40:37;;;;;;;1.63;0.45;;;;;;;23.46;35.09;101982.47;5073244;28;20025;-48
2022/09/19 03:43:06;;;;;;;1.92;0.45;;;;;;;23.61;34.95;102006.50;5073355;28;20383;-47
2022/09/19 03:45:34;;;;;;;2.65;0.30;;;;;;;23.55;35.02;102002.81;5059693;28;20115;-49
2022/09/19 03:48:03;;;;;;;0.90;0.40;;;;;;;23.56;34.88;102005.50;5071835;28;20547;-47
2022/09/19 03:50:31;;;;;;;1.55;0.43;;;;;;;23.50;35.11;102000.94;5068329;28;20029;-50
2022/09/19 03:53:00;;;;;;;1.85;0.60;;;;;;;23.54;35.20;102001.03;5069567;28;20036;-49
2022/09/19 03:55:29;;;;;;;1.55;0.60;;;;;;;23.59;34.78;102007.31;5071468;28;20032;-48
2022/09/19 03:57:57;;;;;;;0.70;0.30;;;;;;;23.55;34.74;102008.06;5071056;28;20490;-49
2022/09/19 04:00:25;;;;;;;0.73;0.32;;;;;;;23.52;34.88;102009.72;5071080;28;20028;-48
2022/09/19 04:02:54;;;;;;;0.75;0.43;;;;;;;23.55;34.65;102008.06;5071043;28;20067;-50
2022/09/19 04:05:23;;;;;;;1.80;0.40;;;;;;;23.51;35.16;102012.31;5072062;28;20043;-48
2022/09/19 04:07:51;;;;;;;0.47;0.30;;;;;;;23.52;34.88;102009.72;5074365;28;20027;-51
2022/09/19 04:10:20;;;;;;;1.00;0.30;;;;;;;23.56;34.87;102020.31;5050950;28;20040;-50
2022/09/19 04:12:48;;;;;;;1.33;0.30;;;;;;;23.47;34.78;102016.59;5076391;28;20033;-47
2022/09/19 04:15:17;;;;;;;0.73;0.40;;;;;;;23.44;34.73;102015.56;5074078;28;20036;-51
2022/09/19 04:17:45;;;;;;;0.82;0.40;;;;;;;23.43;34.95;102009.47;5055952;28;20032;-47
2022/09/19 04:20:14;;;;;;;1.88;0.68;;;;;;;23.44;35.04;102015.56;5060740;28;20113;-48
2022/09/19 04:22:42;;;;;;;1.88;0.30;;;;;;;23.45;34.73;102022.59;5067874;28;20031;-50
2022/09/19 04:25:12;;;;;;;1.70;0.40;;;;;;;23.42;35.21;102020.78;5070588;28;20075;-48
2022/09/19 04:27:40;;;;;;;0.90;0.35;;;;;;;23.38;34.83;102016.28;5068396;28;20025;-47
2022/09/19 04:30:10;;;;;;;1.00;0.30;;;;;;;23.33;34.83;102018.75;5074612;28;20055;-47
2022/09/19 04:32:39;;;;;;;1.05;0.30;;;;;;;23.29;34.97;102031.69;5070634;28;20034;-47
2022/09/19 04:35:08;;;;;;;0.93;0.40;;;;;;;23.26;34.91;102027.22;5074113;28;20081;-49
2022/09/19 04:37:37;;;;;;;0.98;0.28;;;;;;;23.30;35.43;102028.25;5074283;28;20055;-46
2022/09/19 04:40:05;;;;;;;2.17;0.55;;;;;;;23.35;35.42;102021.41;5070706;28;20028;-47
2022/09/19 04:42:35;;;;;;;1.27;0.50;;;;;;;23.33;35.24;102007.41;5068024;28;20037;-48
2022/09/19 04:45:04;;;;;;;0.98;0.40;;;;;;;23.33;35.03;102018.75;5070902;28;20047;-46
2022/09/19 04:47:33;;;;;;;3.50;0.60;;;;;;;23.34;35.27;102010.06;5070068;28;20098;-50
2022/09/19 04:50:01;;;;;;;0.82;0.32;;;;;;;23.31;34.94;102009.94;5070749;28;20099;-52
2022/09/19 04:52:30;;;;;;;0.38;0.22;;;;;;;23.29;35.26;102005.50;5070195;28;20033;-52
2022/09/19 04:54:58;;;;;;;0.90;0.50;;;;;;;23.26;35.33;102006.28;5068291;28;20032;-46
2022/09/19 04:57:27;;;;;;;0.50;0.32;;;;;;;23.23;35.20;102002.69;5072676;28;20506;-46
2022/09/19 04:59:55;;;;;;;0.70;0.43;;;;;;;23.19;35.27;102005.16;5066824;28;20036;-49
2022/09/19 05:02:24;;;;;;;1.05;0.40;;;;;;;23.28;35.01;102011.59;5075606;28;20024;-47
2022/09/19 05:04:52;;;;;;;1.75;0.50;;;;;;;23.28;35.06;102006.34;5068409;28;20768;-47
2022/09/19 05:07:22;;;;;;;1.98;0.70;;;;;;;23.20;35.00;102004.34;5067766;28;20040;-47
2022/09/19 05:09:50;;;;;;;1.38;0.43;;;;;;;23.21;34.83;101994.78;5070355;28;20043;-49
2022/09/19 05:12:19;;;;;;;0.65;0.20;;;;;;;23.20;34.82;102001.75;5069641;28;20466;-46
2022/09/19 05:14:47;;;;;;;0.65;0.30;;;;;;;23.10;34.97;101994.41;5069268;28;20043;-48
2022/09/19 05:17:15;;;;;;;0.73;0.30;;;;;;;23.16;35.09;102010.31;5075923;28;20584;-47
2022/09/19 05:19:44;;;;;;;0.90;0.35;;;;;;;23.05;35.19;101989.03;5065010;28;20033;-47
2022/09/19 05:22:12;;;;;;;1.15;0.52;;;;;;;23.20;34.88;102009.59;5075760;28;20035;-47
2022/09/19 05:24:40;;;;;;;1.75;0.50;;;;;;;23.17;34.77;102016.44;5065716;28;20082;-51
2022/09/19 05:27:09;;;;;;;0.88;0.40;;;;;;;23.16;34.68;102010.31;5069249;28;20047;-51
2022/09/19 05:29:39;;;;;;;0.50;0.40;;;;;;;23.17;34.95;102009.44;5070319;28;21279;-53
2022/09/19 05:32:07;;;;;;;0.90;0.40;;;;;;;23.16;34.85;102015.56;5067790;28;20044;-47
2022/09/19 05:34:36;;;;;;;0.98;0.43;;;;;;;23.13;34.86;102018.06;5065786;28;20032;-51
2022/09/19 05:37:05;;;;;;;1.60;0.40;;;;;;;23.12;34.99;102011.06;5069909;28;20110;-50
2022/09/19 05:39:33;;;;;;;1.35;0.47;;;;;;;23.13;35.16;102011.94;5070077;28;20039;-48
2022/09/19 05:42:02;;;;;;;4.07;0.30;;;;;;;23.08;35.35;102016.13;5069957;28;20039;-49
2022/09/19 05:44:31;;;;;;;2.15;0.45;;;;;;;22.98;35.42;101987.03;5045217;28;20028;-51
2022/09/19 05:46:59;;;;;;;0.50;0.45;;;;;;;23.12;35.27;102015.38;5068721;28;20380;-49
2022/09/19 05:49:27;;;;;;;1.05;0.38;;;;;;;23.12;35.49;102020.63;5075014;28;20119;-47
2022/09/19 05:51:56;;;;;;;0.73;0.28;;;;;;;23.11;35.19;102026.69;5070803;28;20657;-48
2022/09/19 05:54:24;;;;;;;2.08;0.50;;;;;;;23.04;35.24;102020.34;5068713;28;20040;-47
2022/09/19 05:56:54;;;;;;;1.52;0.70;;;;;;;23.07;35.51;102025.69;5063584;28;20033;-48
2022/09/19 05:59:23;;;;;;;1.95;0.30;;;;;;;23.11;35.34;102029.31;5070772;28;20035;-48
2022/09/19 06:01:51;;;;;;;1.95;0.43;;;;;;;23.15;34.87;102032.09;5068996;28;20035;-47
2022/09/19 06:04:20;;;;;;;3.08;0.40;;;;;;;23.09;35.14;102013.56;5064082;28;20028;-46
2022/09/19 06:06:49;;;;;;;2.25;0.50;;;;;;;23.09;35.08;102024.03;5068947;28;20024;-47
2022/09/19 06:09:17;;;;;;;1.70;0.40;;;;;;;23.05;35.12;102025.66;5069314;28;20024;-46
2022/09/19 06:11:46;;;;;;;1.92;0.28;;;;;;;23.08;35.31;102021.38;5068694;28;20024;-46
2022/09/19 06:14:14;;;;;;;2.40;0.30;;;;;;;23.08;35.04;102024.00;5070778;28;20480;-48
2022/09/19 06:16:43;;;;;;;3.40;0.55;;;;;;;23.04;35.45;102021.25;5069113;28;20532;-49
2022/09/19 06:19:11;;;;;;;0.47;0.40;;;;;;;23.05;35.32;102024.75;5073573;28;20020;-47
2022/09/19 06:21:40;;;;;;;1.23;0.50;;;;;;;23.10;35.13;102032.75;5075469;28;20823;-46
2022/09/19 06:24:09;;;;;;;1.77;0.63;;;;;;;23.15;34.96;102034.72;5073881;28;20020;-47
2022/09/19 06:26:38;;;;;;;3.58;1.02;;;;;;;23.13;35.60;102039.00;5073322;28;20495;-50
2022/09/19 06:29:06;;;;;;;1.50;0.70;;;;;;;23.14;35.32;102038.16;5076790;28;20055;-51
2022/09/19 06:31:35;;;;;;;4.63;1.30;;;;;;;23.14;35.26;102043.41;5072042;28;20067;-50
2022/09/19 06:34:04;;;;;;;4.60;1.20;;;;;;;23.14;35.28;102038.16;5075433;28;20032;-48
2022/09/19 06:36:32;;;;;;;5.28;1.40;;;;;;;23.18;35.17;102044.38;5075861;28;20032;-48
2022/09/19 06:39:00;;;;;;;2.55;1.10;;;;;;;23.16;35.71;102039.13;5076456;28;20032;-47
2022/09/19 06:41:30;;;;;;;1.90;1.20;;;;;;;23.20;35.57;102047.94;5076182;28;20021;-49
2022/09/19 06:43:59;;;;;;;3.20;1.50;;;;;;;23.19;35.23;102036.56;5058075;28;20530;-47
2022/09/19 06:46:30;;;;;;;2.13;1.40;;;;;;;23.37;35.07;102056.38;5072183;28;20059;-47
2022/09/19 06:48:59;;;;;;;4.85;1.60;;;;;;;23.45;35.34;102047.06;5066527;28;20432;-49
2022/09/19 06:51:29;;;;;;;5.60;1.60;;;;;;;23.49;34.92;102051.56;5075407;28;20029;-47
2022/09/19 06:53:57;;;;;;;2.20;1.50;;;;;;;23.55;35.12;102066.59;5071828;28;20666;-47
2022/09/19 06:56:25;;;;;;;7.18;2.05;;;;;;;23.53;34.96;102065.66;5075424;28;20059;-46
2022/09/19 06:58:54;;;;;;;4.78;1.52;;;;;;;23.64;35.21;102066.00;5074935;28;20035;-47
2022/09/19 07:01:23;;;;;;;5.22;2.20;;;;;;;23.60;35.32;102078.06;5057471;28;20032;-47
2022/09/19 07:03:51;;;;;;;3.20;2.05;;;;;;;23.69;34.86;102077.47;5068902;28;20571;-49
2022/09/19 07:06:21;;;;;;;2.60;1.50;;;;;;;23.76;34.99;102082.09;5072044;28;20043;-47
2022/09/19 07:08:50;;;;;;;4.03;1.80;;;;;;;23.79;35.54;102081.28;5072137;28;20475;-49
2022/09/19 07:11:18;;;;;;;3.13;1.80;;;;;;;23.78;35.47;102085.66;5074504;28;20482;-48
2022/09/19 07:13:50;;;;;;;5.65;1.63;;;;;;;23.81;35.46;102079.59;5072160;28;20139;-47
2022/09/19 07:16:18;;;;;;;4.75;1.63;;;;;;;23.77;35.67;102076.00;5071854;28;20054;-47
2022/09/19 07:18:48;;;;;;;4.90;1.52;;;;;;;23.81;35.75;102077.00;5075434;28;20115;-46
2022/09/19 07:21:17;;;;;;;2.13;1.17;;;;;;;23.86;35.38;102071.88;5074647;28;20125;-46
2022/09/19 07:23:47;;;;;;;4.10;1.50;;;;;;;23.92;35.49;102080.81;5075588;28;20028;-46
2022/09/19 07:26:16;;;;;;;3.50;1.10;;;;;;;23.94;35.78;102079.16;5070521;28;20025;-46
2022/09/19 07:28:45;;;;;;;2.97;1.40;;;;;;;23.97;35.88;102084.50;5071170;28;20127;-46
2022/09/19 07:31:13;;;;;;;2.60;0.85;;;;;;;23.97;35.59;102083.66;5071625;28;20398;-47
2022/09/19 07:33:41;;;;;;;3.08;1.15;;;;;;;24.06;35.70;102085.66;5075944;28;20024;-47
2022/09/19 07:36:11;;;;;;;6.82;1.35;;;;;;;24.05;35.49;102087.38;5073945;28;20032;-50
2022/09/19 07:38:39;;;;;;;6.35;1.33;;;;;;;24.12;35.40;102091.06;5072385;28;20483;-47
2022/09/19 07:41:07;;;;;;;1.60;0.52;;;;;;;24.12;36.03;102089.34;5075414;28;20040;-47
2022/09/19 07:43:36;;;;;;;3.05;1.00;;;;;;;24.12;35.93;102086.72;5068935;28;20025;-49
2022/09/19 07:46:04;;;;;;;2.33;0.50;;;;;;;24.16;35.86;102086.81;5071036;28;20048;-48
2022/09/19 07:48:33;;;;;;;2.13;0.70;;;;;;;24.21;35.28;102098.31;5075801;28;20122;-50
2022/09/19 07:51:02;;;;;;;0.80;0.60;;;;;;;24.32;35.38;102099.56;5071064;28;20024;-50
2022/09/19 07:53:31;;;;;;;2.22;0.80;;;;;;;24.26;35.51;102096.72;5071231;28;20105;-47
2022/09/19 07:55:59;;;;;;;1.77;0.80;;;;;;;24.30;35.48;102108.19;5081975;28;20403;-51
2022/09/19 07:58:28;;;;;;;1.10;0.57;;;;;;;24.32;35.62;102096.94;5072410;28;20356;-48
2022/09/19 08:01:00;;;;;;;2.20;0.70;;;;;;;24.33;35.93;102100.44;5071299;28;20024;-48
2022/09/19 08:03:29;;;;;;;1.98;0.77;;;;;;;24.37;35.69;102099.69;5051108;28;20028;-48
2022/09/19 08:06:01;;;;;;;4.30;1.25;;;;;;;24.40;35.78;102099.78;5072059;28;20028;-47
2022/09/19 08:08:30;;;;;;;4.13;1.17;;;;;;;24.46;35.34;102104.31;5057785;28;20032;-47
2022/09/19 08:11:00;;;;;;;1.75;0.70;;;;;;;24.49;35.46;102101.78;5080686;28;20039;-47
2022/09/19 08:13:29;;;;;;;2.85;1.05;;;;;;;24.50;35.55;102106.16;5056607;28;20402;-48
2022/09/19 08:15:57;;;;;;;1.98;0.80;;;;;;;24.47;35.99;102109.59;5069846;28;20032;-49
2022/09/19 08:18:27;;;;;;;3.25;0.80;;;;;;;24.48;35.66;102116.59;5073883;28;20033;-51
2022/09/19 08:20:55;;;;;;;1.90;0.70;;;;;;;24.52;35.69;102120.19;5073830;28;20024;-51
2022/09/19 08:23:24;;;;;;;4.28;0.50;;;;;;;24.57;35.59;102121.22;5055922;28;20036;-48
2022/09/19 08:25:53;;;;;;;2.20;0.68;;;;;;;24.60;35.89;102125.66;5073683;28;20036;-53
2022/09/19 08:28:22;;;;;;;2.17;0.77;;;;;;;24.56;36.05;102115.13;5073141;28;20049;-52
2022/09/19 08:30:50;;;;;;;3.35;0.82;;;;;;;24.64;36.14;102122.28;5083390;28;20054;-52
2022/09/19 08:33:18;;;;;;;3.95;1.10;;;;;;;24.70;35.73;102130.38;5078632;28;20021;-48
2022/09/19 08:35:46;;;;;;;2.15;0.60;;;;;;;24.76;35.57;102134.91;5098638;28;20020;-51
2022/09/19 08:38:14;;;;;;;2.92;1.00;;;;;;;24.79;35.86;102127.13;5102144;28;20027;-48
2022/09/19 08:40:45;;;;;;;1.88;0.75;;;;;;;24.82;35.77;102137.72;5100668;28;20111;-51
2022/09/19 08:43:38;;;;;;;3.13;0.70;;;;;;;24.76;35.74;102143.66;5104187;28;20373;-52
2022/09/19 08:46:20;;;;;;;3.15;0.90;;;;;;;24.80;35.70;102144.66;5093623;28;20028;-51
2022/09/19 08:48:54;;;;;;;2.90;0.80;;;;;;;24.83;35.82;102140.38;5073518;28;20048;-48
2022/09/19 08:51:29;;;;;;;4.40;0.85;;;;;;;24.87;35.49;102143.97;5099297;28;20032;-53
2022/09/19 08:54:06;;;;;;;2.35;0.77;;;;;;;24.83;35.49;102132.50;5076514;28;20028;-51
2022/09/19 08:56:38;;;;;;;3.58;0.90;;;;;;;24.92;35.66;102146.72;5085725;28;20177;-49
2022/09/19 08:59:12;;;;;;;1.75;0.60;;;;;;;24.91;35.51;102140.59;5101530;28;20043;-48
2022/09/19 09:01:39;;;;;;;2.88;0.68;;;;;;;24.94;35.54;102140.69;5082429;28;20016;-52
2022/09/19 09:04:30;;;;;;;3.88;0.82;;;;;;;25.01;35.38;102139.09;5101175;28;20036;-48
2022/09/19 09:07:26;;;;;;;3.08;1.17;;;;;;;24.99;35.82;102135.53;5094821;28;20505;-49
2022/09/19 09:10:18;;;;;;;4.82;0.90;;;;;;;24.99;35.22;102136.41;5092544;28;20044;-51
2022/09/19 09:12:55;;;;;;;1.67;0.68;;;;;;;25.06;35.31;102131.34;5080834;28;20039;-53
2022/09/19 09:15:25;;;;;;;4.40;0.75;;;;;;;25.11;35.13;102135.88;5098660;28;20368;-48
2022/09/19 09:17:59;;;;;;;1.65;0.70;;;;;;;25.08;35.11;102132.28;5068429;28;20049;-47
2022/09/19 09:20:36;;;;;;;1.85;0.68;;;;;;;25.12;34.82;102135.03;5081912;28;20092;-50
2022/09/19 09:23:14;;;;;;;2.80;0.70;;;;;;;25.10;35.15;102133.22;5084873;28;20024;-47
2022/09/19 09:25:49;;;;;;;1.98;0.75;;;;;;;25.15;34.98;102134.25;5100937;28;20047;-48
2022/09/19 09:28:20;;;;;;;1.88;0.70;;;;;;;25.07;34.83;102131.38;5096898;28;20327;-47
2022/09/19 09:30:51;;;;;;;2.15;0.73;;;;;;;25.08;34.77;102141.03;5077426;28;20482;-47
2022/09/19 09:33:25;;;;;;;3.70;0.90;;;;;;;25.15;34.34;102134.25;5077737;28;20027;-51
2022/09/19 09:36:14;;;;;;;2.70;0.80;;;;;;;25.20;34.25;102136.97;5097718;28;20466;-47
2022/09/19 09:38:48;;;;;;;2.97;0.88;;;;;;;25.21;33.81;102131.75;5100986;28;20028;-48
2022/09/19 09:41:47;;;;;;;3.08;1.10;;;;;;;25.12;34.24;102140.28;5077312;28;20021;-48
2022/09/19 09:44:13;;;;;;;4.25;0.75;;;;;;;25.15;34.33;102137.75;5084799;28;20503;-48
2022/09/19 09:47:05;;;;;;;1.95;0.70;;;;;;;25.14;34.27;102140.34;5100657;28;20024;-50
2022/09/19 09:49:34;;;;;;;2.60;0.88;;;;;;;25.14;34.39;102127.22;5060175;28;20487;-52
2022/09/19 09:52:20;;;;;;;3.65;1.20;;;;;;;25.19;34.33;102143.94;5102189;28;20391;-52
2022/09/19 09:58:27;;;;;;;4.30;0.90;;;;;;;25.13;34.23;102134.19;5091206;28;20368;-53
2022/09/19 10:04:08;;;;;;;2.97;0.80;;;;;;;25.20;33.79;102137.84;5097240;28;20028;-51
2022/09/19 10:06:43;;;;;;;1.85;0.60;;;;;;;25.21;33.67;102137.00;5088622;28;20032;-52
2022/09/19 10:09:17;;;;;;;3.88;0.70;;;;;;;25.12;33.30;102132.41;5106028;28;20042;-50
2022/09/19 10:12:07;;;;;;;6.10;0.75;;;;;;;25.13;33.61;102133.31;5105357;28;20104;-52
2022/09/19 10:14:39;;;;;;;3.53;0.70;;;;;;;25.08;33.78;102137.53;5102439;28;20116;-52
2022/09/19 10:17:08;;;;;;;3.45;0.90;;;;;;;25.12;33.36;102132.41;5106041;28;20035;-51
2022/09/19 10:19:41;;;;;;;4.28;0.82;;;;;;;25.10;33.27;102133.22;5104128;28;20031;-52
2022/09/19 10:22:15;;;;;;;5.82;0.73;;;;;;;25.13;33.16;102126.31;5065220;28;20034;-51
2022/09/19 10:25:08;;;;;;;5.15;0.80;;;;;;;25.16;33.24;102129.00;5105484;28;20031;-52
2022/09/19 10:27:39;;;;;;;6.07;1.10;;;;;;;25.25;32.39;102132.72;5082031;28;20032;-51
2022/09/19 10:30:18;;;;;;;3.13;1.13;;;;;;;25.21;32.85;102136.13;5103578;28;20056;-51
2022/09/19 10:32:48;;;;;;;2.15;0.70;;;;;;;25.24;32.32;102130.94;5104689;28;20070;-52
2022/09/19 10:35:30;;;;;;;1.60;0.73;;;;;;;25.18;32.88;102135.19;5106186;28;20024;-53
2022/09/19 10:38:13;;;;;;;1.42;0.70;;;;;;;25.12;33.47;102137.66;5107184;28;20035;-52
2022/09/19 10:41:01;;;;;;;3.67;0.60;;;;;;;25.13;33.02;102136.81;5083043;28;20015;-50
2022/09/19 10:43:33;;;;;;;1.88;0.57;;;;;;;25.17;32.68;102137.75;5099986;28;20040;-51
2022/09/19 10:46:05;;;;;;;2.10;0.85;;;;;;;25.27;32.69;102136.28;5103445;28;20383;-54
2022/09/19 10:48:35;;;;;;;0.95;0.63;;;;;;;25.20;32.13;102139.59;5100581;28;20111;-51
2022/09/19 10:51:13;;;;;;;2.25;0.68;;;;;;;25.21;32.35;102129.13;5106181;28;20037;-50
2022/09/19 10:53:46;;;;;;;2.08;0.80;;;;;;;25.24;31.72;102142.34;5104670;28;20020;-52
2022/09/19 10:56:24;;;;;;;0.85;0.40;;;;;;;25.20;32.66;102136.97;5105398;28;20031;-51
2022/09/19 10:58:59;;;;;;;2.78;0.70;;;;;;;25.24;32.07;102139.72;5088115;28;20035;-52
2022/09/19 11:01:28;;;;;;;1.00;0.40;;;;;;;25.18;32.25;102145.69;5084235;28;20028;-51
2022/09/19 11:04:21;;;;;;;4.32;0.60;;;;;;;25.18;31.86;102131.66;5102460;28;20031;-49
2022/09/19 11:07:02;;;;;;;1.48;0.60;;;;;;;25.25;31.97;102138.88;5098161;28;20040;-51
2022/09/19 11:09:36;;;;;;;1.83;0.70;;;;;;;25.23;32.12;102131.81;5102793;28;20471;-51
2022/09/19 11:12:17;;;;;;;1.20;0.60;;;;;;;25.27;32.11;102142.44;5099256;28;20104;-51
2022/09/19 11:14:48;;;;;;;1.50;0.57;;;;;;;25.29;31.39;102138.09;5085905;28;20185;-52
2022/09/19 11:17:37;;;;;;;0.75;0.40;;;;;;;25.31;31.65;102138.13;5105498;28;20034;-49
2022/09/19 11:20:30;;;;;;;1.50;0.65;;;;;;;25.25;31.66;102131.00;5073501;28;20376;-49
2022/09/19 11:23:17;;;;;;;1.58;0.47;;;;;;;25.24;31.32;102126.59;5082242;28;20039;-50
2022/09/19 11:26:08;;;;;;;1.25;0.60;;;;;;;25.17;31.65;102122.91;5099914;28;20111;-52
2022/09/19 11:29:02;;;;;;;2.30;0.75;;;;;;;25.14;31.72;102125.44;5099370;28;20088;-50
2022/09/19 11:32:10;;;;;;;2.10;0.90;;;;;;;25.18;32.24;102122.06;5094638;28;20061;-47
2022/09/19 11:34:41;;;;;;;1.77;0.65;;;;;;;25.24;32.00;102129.22;5094888;28;20032;-47
2022/09/19 11:37:25;;;;;;;1.95;0.68;;;;;;;25.12;32.40;102116.66;5084918;28;20467;-47
2022/09/19 11:40:12;;;;;;;2.22;0.70;;;;;;;25.26;32.02;102129.25;5099680;28;20043;-48
2022/09/19 11:42:44;;;;;;;2.17;0.57;;;;;;;25.30;32.21;102129.38;5091925;28;20097;-51
2022/09/19 11:45:19;;;;;;;1.73;0.80;;;;;;;25.31;31.56;102131.16;5102574;28;20471;-51
2022/09/19 11:48:27;;;;;;;1.50;0.65;;;;;;;25.28;32.01;102128.44;5099336;28;20569;-53
2022/09/19 11:51:00;;;;;;;3.05;0.93;;;;;;;25.28;32.01;102128.44;5098767;28;20043;-51
2022/09/19 11:53:57;;;;;;;3.08;0.68;;;;;;;25.21;32.38;102125.63;5077300;28;20028;-52
2022/09/19 11:56:43;;;;;;;1.02;0.60;;;;;;;25.29;32.24;102117.09;5104671;28;20024;-51
2022/09/19 11:59:40;;;;;;;1.98;0.98;;;;;;;25.34;31.76;102118.09;5105610;28;20047;-52
2022/09/19 12:02:31;;;;;;;1.75;0.90;;;;;;;25.23;32.33;102121.31;5096526;28;20040;-48
2022/09/19 12:05:02;;;;;;;3.92;0.95;;;;;;;25.28;31.71;102112.69;5094904;28;20047;-47